Time;durP1;ratioP1;P1;durP2;ratioP2;P2;SDS_P1;SDS_P2;PMS_P1;PMS_P2;Temp;Humidity;BMP_temperature;BMP_pressure;BME280_temperature;BME280_humidity;BME280_pressure;Samples;Min_cycle;Max_cycle;Signal;HPM_P1;HPM_P2
2023/04/23 00:01:39;;;;;;;13.05;9.30;;;22.20;54.40;;;;;;4826032;29;20094;-76
2023/04/23 00:04:07;;;;;;;17.92;8.80;;;22.20;54.50;;;;;;4823422;29;20443;-76
2023/04/23 00:06:34;;;;;;;15.30;10.43;;;22.10;54.60;;;;;;4823538;29;20073;-76
2023/04/23 00:09:01;;;;;;;14.88;9.82;;;22.20;54.70;;;;;;4822657;29;20055;-76
2023/04/23 00:11:27;;;;;;;14.95;9.60;;;22.20;54.70;;;;;;4809002;29;20030;-76
2023/04/23 00:13:54;;;;;;;16.38;10.25;;;22.10;54.80;;;;;;4822657;29;20057;-76
2023/04/23 00:16:20;;;;;;;15.07;10.30;;;22.10;54.90;;;;;;4823363;29;20117;-76
2023/04/23 00:18:47;;;;;;;16.85;11.15;;;22.20;55.10;;;;;;4808208;29;20396;-76
2023/04/23 00:21:14;;;;;;;18.17;12.35;;;22.10;55.10;;;;;;4823250;29;20542;-76
2023/04/23 00:23:40;;;;;;;18.63;12.25;;;22.10;55.10;;;;;;4822828;29;20227;-76
2023/04/23 00:26:06;;;;;;;19.92;11.82;;;22.20;55.10;;;;;;4823413;29;20415;-76
2023/04/23 00:28:32;;;;;;;16.05;11.70;;;22.00;55.00;;;;;;4822781;29;20039;-76
2023/04/23 00:30:59;;;;;;;17.85;10.98;;;22.10;55.10;;;;;;4822684;29;20034;-76
2023/04/23 00:33:25;;;;;;;16.40;12.30;;;22.10;55.10;;;;;;4805031;29;20047;-76
2023/04/23 00:35:51;;;;;;;19.70;11.27;;;22.20;55.20;;;;;;4803018;29;20085;-76
2023/04/23 00:38:19;;;;;;;17.25;10.95;;;22.10;55.30;;;;;;4818080;29;20070;-76
2023/04/23 00:40:45;;;;;;;16.30;10.73;;;22.20;55.30;;;;;;4809008;29;20034;-76
2023/04/23 00:43:14;;;;;;;19.25;11.48;;;22.20;55.30;;;;;;4822898;29;20791;-76
2023/04/23 00:45:40;;;;;;;14.88;9.77;;;22.10;55.40;;;;;;4823379;29;20065;-76
2023/04/23 00:48:07;;;;;;;16.00;10.10;;;22.20;55.40;;;;;;4824181;29;20039;-76
2023/04/23 00:50:33;;;;;;;15.10;10.32;;;22.10;55.40;;;;;;4825149;29;20034;-76
2023/04/23 00:52:59;;;;;;;13.48;10.43;;;22.20;55.40;;;;;;4823364;29;20101;-76
2023/04/23 00:55:25;;;;;;;13.18;9.65;;;22.20;55.40;;;;;;4823750;29;20046;-76
2023/04/23 00:57:51;;;;;;;13.25;9.13;;;22.10;55.40;;;;;;4804248;29;20051;-76
2023/04/23 01:00:19;;;;;;;12.77;9.63;;;22.10;55.50;;;;;;4788000;29;20051;-76
2023/04/23 01:02:47;;;;;;;11.10;9.43;;;22.10;55.50;;;;;;4789017;29;20405;-76
2023/04/23 01:05:14;;;;;;;14.00;10.10;;;22.10;55.50;;;;;;4804768;29;20039;-76
2023/04/23 01:07:42;;;;;;;12.35;8.95;;;22.10;55.70;;;;;;4787249;29;20042;-76
2023/04/23 01:10:09;;;;;;;11.68;7.93;;;22.10;55.70;;;;;;4786696;30;20051;-76
2023/04/23 01:12:35;;;;;;;15.15;8.85;;;21.90;55.70;;;;;;4786586;30;20039;-76
2023/04/23 01:15:02;;;;;;;17.13;9.05;;;22.00;55.70;;;;;;4793540;29;20065;-76
2023/04/23 01:17:29;;;;;;;11.93;8.30;;;22.00;55.70;;;;;;4804046;29;20448;-76
2023/04/23 01:19:55;;;;;;;12.73;9.68;;;22.00;55.80;;;;;;4786153;30;20103;-75
2023/04/23 01:22:22;;;;;;;13.30;9.48;;;21.90;56.00;;;;;;4802273;29;20043;-76
2023/04/23 01:24:48;;;;;;;14.85;9.85;;;21.90;55.90;;;;;;4804343;29;20508;-76
2023/04/23 01:27:15;;;;;;;15.55;9.07;;;22.00;55.90;;;;;;4803712;29;20034;-76
2023/04/23 01:29:41;;;;;;;13.05;9.07;;;21.90;55.90;;;;;;4803602;29;20522;-76
2023/04/23 01:32:07;;;;;;;13.27;8.65;;;21.90;56.00;;;;;;4803609;29;20058;-76
2023/04/23 01:34:38;;;;;;;14.35;9.43;;;21.90;56.00;;;;;;4808464;29;20090;-76
2023/04/23 01:37:04;;;;;;;12.80;9.23;;;21.90;55.90;;;;;;4823184;29;20034;-76
2023/04/23 01:39:30;;;;;;;12.27;8.93;;;22.00;55.90;;;;;;4812315;29;20046;-76
2023/04/23 01:41:57;;;;;;;11.40;8.50;;;21.90;56.00;;;;;;4815216;29;20029;-76
2023/04/23 01:44:23;;;;;;;11.88;8.13;;;21.90;56.10;;;;;;4822671;29;20436;-76
2023/04/23 01:46:49;;;;;;;14.02;8.43;;;21.90;56.10;;;;;;4824390;29;20038;-76
2023/04/23 01:49:15;;;;;;;14.13;9.40;;;21.80;56.00;;;;;;4837854;29;20080;-76
2023/04/23 01:51:42;;;;;;;17.08;10.18;;;21.80;56.10;;;;;;4823510;29;20034;-76
2023/04/23 01:54:08;;;;;;;12.45;9.15;;;22.00;56.20;;;;;;4823339;29;20050;-76
2023/04/23 01:56:35;;;;;;;15.38;9.63;;;21.90;56.20;;;;;;4828422;29;20036;-76
2023/04/23 01:59:01;;;;;;;12.13;9.50;;;21.70;56.30;;;;;;4831619;29;20034;-76
2023/04/23 02:01:44;;;;;;;13.45;9.00;;;21.80;56.40;;;;;;4816336;29;20487;-76
2023/04/23 02:04:13;;;;;;;13.45;10.02;;;21.80;56.40;;;;;;4806162;29;20038;-76
2023/04/23 02:06:41;;;;;;;16.98;9.65;;;21.80;56.30;;;;;;4814604;29;20159;-76
2023/04/23 02:09:07;;;;;;;12.18;9.68;;;21.80;56.30;;;;;;4837837;29;20037;-76
2023/04/23 02:11:33;;;;;;;13.77;10.13;;;21.80;56.30;;;;;;4822344;29;20027;-76
2023/04/23 02:14:01;;;;;;;13.45;9.95;;;21.80;56.30;;;;;;4837639;29;20046;-77
2023/04/23 02:16:27;;;;;;;12.60;9.05;;;21.80;56.30;;;;;;4820787;29;20054;-76
2023/04/23 02:18:54;;;;;;;12.55;9.10;;;21.90;56.40;;;;;;4820985;29;20056;-76
2023/04/23 02:21:26;;;;;;;15.43;9.93;;;21.90;56.50;;;;;;4804934;29;20053;-76
2023/04/23 02:23:52;;;;;;;16.52;9.52;;;21.90;56.50;;;;;;4802151;29;20047;-76
2023/04/23 02:26:19;;;;;;;12.73;9.30;;;21.80;56.40;;;;;;4803439;29;20119;-76
2023/04/23 02:28:45;;;;;;;14.35;9.30;;;21.80;56.40;;;;;;4803304;29;20055;-76
2023/04/23 02:31:11;;;;;;;17.15;10.98;;;21.80;56.40;;;;;;4786724;29;20043;-76
2023/04/23 02:33:40;;;;;;;13.35;9.10;;;21.90;56.50;;;;;;4805684;29;20043;-76
2023/04/23 02:36:06;;;;;;;14.50;10.55;;;21.90;56.50;;;;;;4790890;29;20070;-76
2023/04/23 02:38:32;;;;;;;14.13;9.73;;;21.90;56.50;;;;;;4806686;29;20057;-76
2023/04/23 02:40:58;;;;;;;12.32;8.85;;;21.90;56.60;;;;;;4805805;29;20058;-76
2023/04/23 02:43:24;;;;;;;12.57;9.23;;;21.70;56.50;;;;;;4806373;29;20074;-76
2023/04/23 02:45:50;;;;;;;14.07;8.80;;;21.80;56.50;;;;;;4787986;29;20070;-76
2023/04/23 02:48:17;;;;;;;8.70;6.63;;;21.80;56.70;;;;;;4791765;29;20372;-76
2023/04/23 02:50:43;;;;;;;9.95;7.72;;;21.70;56.60;;;;;;4807087;29;20066;-77
2023/04/23 02:53:09;;;;;;;11.15;8.10;;;21.60;56.60;;;;;;4807080;29;20046;-76
2023/04/23 02:55:35;;;;;;;11.30;7.57;;;21.70;56.70;;;;;;4817478;29;20133;-76
2023/04/23 02:58:01;;;;;;;13.90;8.60;;;21.70;56.80;;;;;;4840923;29;20522;-76
2023/04/23 03:00:28;;;;;;;11.77;8.70;;;21.70;56.70;;;;;;4824928;29;20067;-76
2023/04/23 03:02:54;;;;;;;12.20;7.78;;;21.60;56.80;;;;;;4825550;29;20368;-76
2023/04/23 03:05:21;;;;;;;12.27;7.53;;;21.60;56.90;;;;;;4823787;29;20773;-75
2023/04/23 03:07:47;;;;;;;12.52;7.15;;;21.60;57.00;;;;;;4824758;29;20500;-76
2023/04/23 03:10:13;;;;;;;14.65;7.95;;;21.60;56.90;;;;;;4809265;29;20150;-76
2023/04/23 03:12:39;;;;;;;11.65;8.00;;;21.70;57.00;;;;;;4824633;29;20093;-76
2023/04/23 03:15:06;;;;;;;15.27;9.05;;;21.70;57.00;;;;;;4805277;29;20051;-76
2023/04/23 03:17:34;;;;;;;14.80;8.75;;;21.60;56.90;;;;;;4773197;30;20055;-76
2023/04/23 03:20:01;;;;;;;14.32;9.48;;;21.60;56.90;;;;;;4803783;29;20058;-76
2023/04/23 03:22:28;;;;;;;14.45;9.55;;;21.60;56.90;;;;;;4790403;29;20089;-76
2023/04/23 03:24:55;;;;;;;15.73;9.32;;;21.70;57.00;;;;;;4789958;29;20057;-76
2023/04/23 03:27:21;;;;;;;13.25;8.90;;;21.60;56.90;;;;;;4804078;29;20047;-76
2023/04/23 03:29:47;;;;;;;11.70;9.02;;;21.60;57.00;;;;;;4790968;29;20058;-76
2023/04/23 03:32:13;;;;;;;11.85;8.65;;;21.50;57.10;;;;;;4805806;29;20618;-76
2023/04/23 03:34:39;;;;;;;12.35;8.75;;;21.50;57.20;;;;;;4790154;29;20511;-77
2023/04/23 03:37:05;;;;;;;15.65;9.63;;;21.50;57.20;;;;;;4806299;29;20596;-76
2023/04/23 03:39:33;;;;;;;12.10;9.45;;;21.40;57.20;;;;;;4775388;30;20116;-76
2023/04/23 03:42:00;;;;;;;17.73;10.05;;;21.40;57.40;;;;;;4787281;30;20088;-76
2023/04/23 03:44:29;;;;;;;20.85;12.00;;;21.50;57.50;;;;;;4768896;30;20396;-76
2023/04/23 03:46:55;;;;;;;15.98;11.10;;;21.60;57.50;;;;;;4798147;29;20081;-76
2023/04/23 03:49:21;;;;;;;21.15;10.88;;;21.60;57.40;;;;;;4806694;29;20038;-76
2023/04/23 03:51:47;;;;;;;15.95;11.23;;;21.50;57.30;;;;;;4822494;29;20129;-76
2023/04/23 03:54:14;;;;;;;15.85;9.57;;;21.50;57.30;;;;;;4824705;29;20058;-76
2023/04/23 03:56:44;;;;;;;14.40;9.00;;;21.50;57.30;;;;;;4824784;29;20516;-76
2023/04/23 03:59:27;;;;;;;13.18;8.48;;;21.60;57.20;;;;;;4824585;29;20114;-76
2023/04/23 04:01:55;;;;;;;18.35;10.23;;;21.70;57.30;;;;;;4839814;29;20109;-76
2023/04/23 04:04:21;;;;;;;19.58;11.32;;;21.70;57.20;;;;;;4825581;29;20594;-76
2023/04/23 04:06:49;;;;;;;15.15;10.18;;;21.70;57.10;;;;;;4793427;29;20059;-76
2023/04/23 04:09:15;;;;;;;15.18;9.85;;;21.70;57.00;;;;;;4789419;29;20054;-76
2023/04/23 04:11:41;;;;;;;17.83;10.57;;;21.60;57.00;;;;;;4787307;30;20112;-76
2023/04/23 04:14:08;;;;;;;16.88;9.95;;;21.60;56.90;;;;;;4780667;29;20553;-76
2023/04/23 04:16:34;;;;;;;14.57;9.88;;;21.70;57.00;;;;;;4783163;29;20138;-76
2023/04/23 04:19:00;;;;;;;13.98;9.27;;;21.80;56.90;;;;;;4795477;29;20044;-76
2023/04/23 04:21:27;;;;;;;14.13;9.52;;;21.70;57.00;;;;;;4786942;29;20043;-76
2023/04/23 04:23:53;;;;;;;17.98;9.45;;;21.70;57.00;;;;;;4787222;30;20043;-76
2023/04/23 04:26:19;;;;;;;14.68;9.48;;;21.60;56.90;;;;;;4786982;29;20051;-76
2023/04/23 04:28:45;;;;;;;19.63;11.95;;;21.70;57.00;;;;;;4787015;29;20154;-76
2023/04/23 04:31:14;;;;;;;13.73;9.65;;;21.60;56.80;;;;;;4794162;29;20577;-76
2023/04/23 04:33:40;;;;;;;15.75;9.80;;;21.70;56.90;;;;;;4786322;30;20051;-76
2023/04/23 04:36:09;;;;;;;15.82;10.27;;;21.70;56.90;;;;;;4786523;29;20143;-76
2023/04/23 04:38:38;;;;;;;12.93;9.95;;;21.70;56.90;;;;;;4801652;29;20610;-76
2023/04/23 04:41:05;;;;;;;17.73;10.48;;;21.70;56.90;;;;;;4804578;29;20086;-77
2023/04/23 04:43:31;;;;;;;14.55;10.23;;;21.70;56.90;;;;;;4804923;29;20087;-76
2023/04/23 04:45:58;;;;;;;12.77;10.10;;;21.80;57.00;;;;;;4808606;29;20046;-76
2023/04/23 04:48:24;;;;;;;14.77;9.93;;;21.70;57.00;;;;;;4825213;29;20069;-76
2023/04/23 04:50:51;;;;;;;18.60;10.30;;;21.70;56.90;;;;;;4821793;29;20098;-76
2023/04/23 04:53:17;;;;;;;14.50;10.23;;;21.70;56.90;;;;;;4820703;29;20106;-76
2023/04/23 04:55:43;;;;;;;15.23;10.70;;;21.70;56.80;;;;;;4806362;29;20047;-76
2023/04/23 04:58:09;;;;;;;17.90;10.63;;;21.70;56.80;;;;;;4820917;29;20530;-76
2023/04/23 05:00:35;;;;;;;16.60;10.80;;;21.70;56.80;;;;;;4823252;29;20045;-76
2023/04/23 05:03:01;;;;;;;13.63;10.40;;;21.80;56.80;;;;;;4824335;29;20037;-75
2023/04/23 05:05:27;;;;;;;17.90;11.55;;;21.70;56.80;;;;;;4817269;29;20038;-76
2023/04/23 05:07:54;;;;;;;20.13;10.15;;;21.70;56.90;;;;;;4822819;29;20037;-76
2023/04/23 05:10:20;;;;;;;19.42;10.60;;;21.80;56.90;;;;;;4824092;29;20114;-76
2023/04/23 05:12:46;;;;;;;14.23;9.43;;;21.70;56.90;;;;;;4824107;29;20030;-76
2023/04/23 05:15:13;;;;;;;15.15;10.23;;;21.80;57.00;;;;;;4823989;29;20522;-75
2023/04/23 05:17:40;;;;;;;19.02;9.48;;;21.60;56.80;;;;;;4823489;29;20038;-76
2023/04/23 05:20:09;;;;;;;12.00;8.88;;;21.70;56.80;;;;;;4823166;29;20030;-76
2023/04/23 05:22:40;;;;;;;14.63;9.20;;;21.80;56.90;;;;;;4823355;29;20042;-76
2023/04/23 05:25:07;;;;;;;16.38;9.68;;;21.80;56.80;;;;;;4820568;29;20113;-76
2023/04/23 05:27:33;;;;;;;13.30;9.55;;;21.80;56.70;;;;;;4818640;29;20034;-76
2023/04/23 05:30:01;;;;;;;17.30;9.85;;;21.90;56.90;;;;;;4822639;29;20050;-76
2023/04/23 05:32:27;;;;;;;18.52;9.50;;;21.90;56.80;;;;;;4822788;29;20110;-76
2023/04/23 05:34:54;;;;;;;17.77;9.02;;;21.90;56.80;;;;;;4823370;29;20042;-76
2023/04/23 05:37:21;;;;;;;11.65;9.43;;;21.90;56.80;;;;;;4821058;29;20110;-76
2023/04/23 05:39:47;;;;;;;13.98;9.15;;;21.90;57.00;;;;;;4815743;29;20474;-76
2023/04/23 05:42:13;;;;;;;13.30;9.23;;;22.00;57.00;;;;;;4812805;29;20030;-76
2023/04/23 05:44:40;;;;;;;11.93;8.85;;;22.00;56.90;;;;;;4821888;29;20035;-76
2023/04/23 05:47:08;;;;;;;12.25;8.80;;;22.00;56.90;;;;;;4823052;29;20096;-76
2023/04/23 05:49:34;;;;;;;12.25;8.52;;;22.00;57.00;;;;;;4807911;29;20171;-77
2023/04/23 05:52:04;;;;;;;13.70;9.13;;;22.10;57.00;;;;;;4817942;29;20041;-91
2023/04/23 05:54:30;;;;;;;17.05;8.82;;;22.10;57.00;;;;;;4802590;29;20050;-78
2023/04/23 05:56:56;;;;;;;12.80;9.65;;;22.10;57.20;;;;;;4840487;29;20097;-80
2023/04/23 05:59:27;;;;;;;12.25;9.10;;;22.20;57.60;;;;;;4837296;29;20042;-80
2023/04/23 06:01:54;;;;;;;15.48;8.02;;;22.40;57.70;;;;;;4840244;29;20044;-84
2023/04/23 06:04:20;;;;;;;10.25;7.07;;;22.70;57.00;;;;;;4825520;29;20049;-77
2023/04/23 06:06:46;;;;;;;10.25;7.82;;;23.00;57.50;;;;;;4824862;29;20724;-81
2023/04/23 06:09:12;;;;;;;15.30;8.43;;;23.20;56.30;;;;;;4815841;29;20042;-81
2023/04/23 06:11:38;;;;;;;1.77;1.67;;;23.30;46.10;;;;;;4824999;29;20073;-82
2023/04/23 06:14:04;;;;;;;6.47;2.75;;;23.10;48.00;;;;;;4809343;29;20054;-83
2023/04/23 06:16:30;;;;;;;0.75;0.55;;;23.10;54.80;;;;;;4809686;29;20029;-80
2023/04/23 06:18:56;;;;;;;2.05;1.63;;;23.00;55.40;;;;;;4824604;29;20051;-82
2023/04/23 06:26:03;;;;;;;3.83;2.78;;;23.10;53.70;;;;;;4827741;29;20069;-78
2023/04/23 06:28:29;;;;;;;1.20;1.20;;;23.30;53.40;;;;;;4802966;29;20210;-77
2023/04/23 06:31:14;;;;;;;7.80;3.55;;;23.40;53.10;;;;;;4805239;29;20035;-75
2023/04/23 06:33:40;;;;;;;2.25;2.05;;;23.30;52.40;;;;;;4802447;29;20577;-75
2023/04/23 06:36:09;;;;;;;3.40;2.33;;;23.20;51.70;;;;;;4772519;29;20051;-74
2023/04/23 06:38:36;;;;;;;1.23;1.23;;;23.20;51.60;;;;;;4801652;29;20047;-75
2023/04/23 06:41:03;;;;;;;14.55;5.40;;;23.20;51.20;;;;;;4801822;29;20126;-74
2023/04/23 06:43:30;;;;;;;2.70;2.50;;;23.20;51.10;;;;;;4801977;29;20051;-74
2023/04/23 06:46:25;;;;;;;6.63;2.72;;;23.10;50.60;;;;;;4765526;30;20039;-74
2023/04/23 06:48:51;;;;;;;1.60;1.50;;;23.10;50.60;;;;;;4773852;30;20500;-74
2023/04/23 06:51:17;;;;;;;11.27;6.57;;;23.10;50.30;;;;;;4749573;30;20052;-76
2023/04/23 06:53:43;;;;;;;8.18;5.40;;;23.10;49.80;;;;;;4767188;30;20068;-76
2023/04/23 06:59:26;;;;;;;5.97;4.38;;;23.20;49.80;;;;;;4837589;24;20082;-76
2023/04/23 07:01:54;;;;;;;8.77;6.63;;;23.10;49.10;;;;;;4817475;29;20035;-74
2023/04/23 07:04:20;;;;;;;8.45;6.75;;;23.20;48.50;;;;;;4820294;29;20043;-74
2023/04/23 07:06:46;;;;;;;9.00;6.40;;;23.10;49.70;;;;;;4820001;29;20053;-77
2023/04/23 07:09:12;;;;;;;10.10;7.30;;;23.20;50.30;;;;;;4821664;29;20030;-75
2023/04/23 07:11:39;;;;;;;8.93;5.32;;;23.10;50.80;;;;;;4833748;29;20022;-75
2023/04/23 07:14:05;;;;;;;8.75;6.28;;;23.20;51.40;;;;;;4821392;29;20125;-78
2023/04/23 07:16:32;;;;;;;8.38;6.03;;;23.10;51.40;;;;;;4821127;29;20042;-73
2023/04/23 07:19:00;;;;;;;5.78;4.10;;;23.10;50.00;;;;;;4820818;29;20042;-76
2023/04/23 07:21:27;;;;;;;7.20;5.70;;;23.20;49.70;;;;;;4823658;29;20125;-73
2023/04/23 07:23:55;;;;;;;8.35;5.80;;;23.20;49.50;;;;;;4823997;29;20034;-76
2023/04/23 07:26:22;;;;;;;10.98;6.18;;;23.10;49.50;;;;;;4823575;29;20034;-74
2023/04/23 07:28:49;;;;;;;8.05;5.70;;;23.20;50.00;;;;;;4823563;29;20035;-76
2023/04/23 07:31:16;;;;;;;9.23;5.97;;;23.20;50.10;;;;;;4823070;29;20046;-75
2023/04/23 07:33:42;;;;;;;8.02;5.70;;;23.20;49.50;;;;;;4823114;29;20540;-75
2023/04/23 07:36:08;;;;;;;9.27;5.03;;;23.10;50.30;;;;;;4824452;29;20470;-75
2023/04/23 07:38:34;;;;;;;11.60;6.70;;;23.10;51.20;;;;;;4823274;29;20083;-75
2023/04/23 07:41:00;;;;;;;9.82;5.40;;;23.10;50.80;;;;;;4823153;29;20685;-76
2023/04/23 07:43:26;;;;;;;6.63;4.45;;;23.20;50.70;;;;;;4823919;29;20134;-75
2023/04/23 07:45:52;;;;;;;8.35;5.32;;;23.10;50.50;;;;;;4822287;29;20030;-75
2023/04/23 07:48:18;;;;;;;8.73;5.03;;;23.20;50.40;;;;;;4824657;29;20035;-76
2023/04/23 07:50:44;;;;;;;5.60;4.20;;;23.20;50.20;;;;;;4822328;29;20027;-76
2023/04/23 07:53:10;;;;;;;11.85;5.65;;;23.30;50.60;;;;;;4824580;29;20063;-74
2023/04/23 07:55:36;;;;;;;6.20;4.75;;;23.10;50.60;;;;;;4822416;29;20034;-73
2023/04/23 07:58:02;;;;;;;9.15;5.32;;;23.20;50.60;;;;;;4820820;29;20043;-75
2023/04/23 08:00:29;;;;;;;8.48;4.68;;;23.10;50.70;;;;;;4823351;29;20065;-75
2023/04/23 08:02:55;;;;;;;8.68;4.43;;;23.20;50.70;;;;;;4823345;29;20034;-75
2023/04/23 08:05:21;;;;;;;5.28;4.30;;;23.20;50.70;;;;;;4823592;29;20135;-75
2023/04/23 08:07:47;;;;;;;5.47;3.97;;;23.20;50.60;;;;;;4823045;29;20056;-75
2023/04/23 08:10:13;;;;;;;6.07;4.38;;;23.20;50.60;;;;;;4824558;29;20042;-75
2023/04/23 08:12:39;;;;;;;5.90;4.00;;;23.20;50.50;;;;;;4836417;29;20499;-75
2023/04/23 08:15:06;;;;;;;4.18;3.72;;;23.10;50.40;;;;;;4840423;29;20120;-74
2023/04/23 08:17:37;;;;;;;6.60;4.63;;;23.20;50.30;;;;;;4823294;29;20050;-75
2023/04/23 08:20:06;;;;;;;6.75;4.15;;;23.10;50.30;;;;;;4823097;29;20030;-75
2023/04/23 08:22:32;;;;;;;5.65;3.50;;;23.10;50.20;;;;;;4822850;29;20113;-75
2023/04/23 08:24:59;;;;;;;7.07;4.57;;;23.10;50.10;;;;;;4823192;29;20074;-75
2023/04/23 08:27:25;;;;;;;8.10;4.68;;;23.10;50.40;;;;;;4823085;29;20050;-75
2023/04/23 08:29:51;;;;;;;8.50;5.43;;;23.10;50.30;;;;;;4837945;29;20498;-75
2023/04/23 08:32:17;;;;;;;9.40;5.38;;;23.00;50.10;;;;;;4823969;29;20126;-75
2023/04/23 08:34:43;;;;;;;7.57;5.15;;;23.10;47.10;;;;;;4822940;29;20046;-75
2023/04/23 08:37:09;;;;;;;8.13;5.10;;;22.90;46.60;;;;;;4823526;29;20108;-74
2023/04/23 08:39:36;;;;;;;7.30;4.50;;;22.90;50.20;;;;;;4823511;29;20730;-74
2023/04/23 08:42:10;;;;;;;6.30;4.45;;;23.00;50.70;;;;;;4824208;29;20118;-75
2023/04/23 08:44:40;;;;;;;4.93;4.38;;;23.00;50.30;;;;;;4836700;29;20045;-74
2023/04/23 08:47:09;;;;;;;16.65;4.13;;;23.00;51.10;;;;;;4838772;29;20115;-75
2023/04/23 08:49:39;;;;;;;6.18;3.75;;;23.10;51.30;;;;;;4822198;29;20050;-74
2023/04/23 08:52:18;;;;;;;3.42;2.65;;;23.00;51.20;;;;;;4823742;29;20043;-75
2023/04/23 08:54:48;;;;;;;10.30;4.55;;;23.00;51.40;;;;;;4820424;29;20046;-74
2023/04/23 08:57:16;;;;;;;11.70;4.60;;;23.00;51.20;;;;;;4821066;29;20062;-75
2023/04/23 08:59:43;;;;;;;4.72;3.17;;;22.80;51.10;;;;;;4820866;29;20058;-74
2023/04/23 09:02:09;;;;;;;3.28;2.90;;;23.00;51.40;;;;;;4785031;29;20059;-74
2023/04/23 09:04:39;;;;;;;3.83;3.05;;;23.00;51.70;;;;;;4769253;29;20055;-74
2023/04/23 09:07:09;;;;;;;4.20;3.58;;;23.00;51.60;;;;;;4783737;30;20098;-75
2023/04/23 09:09:40;;;;;;;5.45;3.67;;;22.80;51.40;;;;;;4784465;29;20132;-75
2023/04/23 09:12:08;;;;;;;3.15;2.83;;;23.00;51.70;;;;;;4783075;29;20978;-75
2023/04/23 09:14:40;;;;;;;4.70;2.97;;;23.00;51.40;;;;;;4778122;29;20394;-74
2023/04/23 09:17:06;;;;;;;9.60;3.15;;;22.90;51.90;;;;;;4768208;29;20107;-76
2023/04/23 09:19:32;;;;;;;5.70;3.15;;;22.90;51.70;;;;;;4784531;29;20420;-76
2023/04/23 09:22:01;;;;;;;6.13;2.95;;;22.90;47.40;;;;;;4787641;29;20066;-76
2023/04/23 09:24:27;;;;;;;8.82;3.38;;;22.90;51.40;;;;;;4790299;29;20043;-74
2023/04/23 09:26:53;;;;;;;3.15;2.75;;;23.00;43.90;;;;;;4799860;29;20047;-75
2023/04/23 09:29:23;;;;;;;4.32;2.72;;;22.90;52.60;;;;;;4799047;29;20156;-75
2023/04/23 09:31:51;;;;;;;4.25;2.83;;;23.00;52.30;;;;;;4798706;29;20042;-75
2023/04/23 09:34:22;;;;;;;4.50;2.90;;;23.00;51.20;;;;;;4818495;29;20058;-75
2023/04/23 09:36:50;;;;;;;5.57;3.10;;;23.00;50.00;;;;;;4820493;29;20041;-73
2023/04/23 09:39:18;;;;;;;3.47;2.97;;;23.00;52.40;;;;;;4822293;29;20038;-75
2023/04/23 09:41:45;;;;;;;5.60;3.10;;;22.90;43.20;;;;;;4819912;29;20045;-74
2023/04/23 09:44:12;;;;;;;4.97;2.78;;;23.10;51.40;;;;;;4820780;29;20057;-72
2023/04/23 09:46:41;;;;;;;5.28;2.50;;;23.10;53.10;;;;;;4819695;29;20038;-73
2023/04/23 09:49:09;;;;;;;3.03;2.75;;;23.10;53.40;;;;;;4820319;29;20057;-74
2023/04/23 09:51:48;;;;;;;3.28;2.22;;;23.40;43.50;;;;;;4822228;29;20065;-74
2023/04/23 09:54:21;;;;;;;5.57;2.75;;;23.60;47.00;;;;;;4804632;29;20054;-74
2023/04/23 09:56:59;;;;;;;3.67;2.03;;;23.60;43.70;;;;;;4798385;29;20435;-73
2023/04/23 09:59:28;;;;;;;6.05;2.70;;;23.40;41.50;;;;;;4818185;29;20062;-73
2023/04/23 10:01:54;;;;;;;2.17;1.98;;;23.50;43.00;;;;;;4815380;29;20049;-73
2023/04/23 10:04:22;;;;;;;1.92;1.52;;;23.50;41.00;;;;;;4817199;29;20042;-74
2023/04/23 10:06:59;;;;;;;3.40;1.25;;;23.50;39.20;;;;;;4802693;29;20046;-74
2023/04/23 10:09:27;;;;;;;2.22;2.03;;;23.40;37.90;;;;;;4788886;29;20102;-74
2023/04/23 10:11:55;;;;;;;3.40;1.05;;;23.60;36.80;;;;;;4817268;29;20042;-74
2023/04/23 10:14:22;;;;;;;2.75;2.13;;;23.50;37.30;;;;;;4798969;29;20046;-75
2023/04/23 10:16:51;;;;;;;1.80;1.70;;;23.30;37.40;;;;;;4812699;29;20050;-74
2023/04/23 10:19:22;;;;;;;2.78;2.13;;;23.40;40.30;;;;;;4817421;29;20038;-75
2023/04/23 10:22:03;;;;;;;4.63;3.25;;;23.40;41.20;;;;;;4820448;29;20049;-75
2023/04/23 10:24:32;;;;;;;7.22;2.00;;;23.20;40.80;;;;;;4819947;29;20083;-74
2023/04/23 10:27:01;;;;;;;3.17;2.40;;;23.30;40.40;;;;;;4820230;29;20055;-73
2023/04/23 10:29:29;;;;;;;2.53;2.33;;;23.40;40.00;;;;;;4835008;29;20046;-74
2023/04/23 10:32:00;;;;;;;2.53;1.80;;;23.40;40.80;;;;;;4835138;29;20027;-72
2023/04/23 10:34:27;;;;;;;2.90;2.60;;;23.40;42.00;;;;;;4819520;29;20046;-71
2023/04/23 10:36:56;;;;;;;5.55;2.40;;;23.30;42.40;;;;;;4821886;29;20042;-74
2023/04/23 10:39:29;;;;;;;6.28;2.33;;;23.40;41.90;;;;;;4820252;29;20087;-75
2023/04/23 10:41:56;;;;;;;2.72;2.13;;;23.40;43.10;;;;;;4821558;29;20042;-73
2023/04/23 10:44:22;;;;;;;3.42;1.23;;;23.40;42.70;;;;;;4821495;29;20134;-72
2023/04/23 10:46:56;;;;;;;4.07;2.17;;;23.40;42.50;;;;;;4819340;29;20172;-73
2023/04/23 10:49:24;;;;;;;2.53;2.28;;;23.40;42.90;;;;;;4819823;29;20098;-72
2023/04/23 10:52:01;;;;;;;6.28;2.58;;;23.40;43.20;;;;;;4820133;29;20034;-71
2023/04/23 10:54:30;;;;;;;5.30;2.05;;;23.30;43.60;;;;;;4821926;29;20069;-72
2023/04/23 10:57:06;;;;;;;4.30;2.40;;;23.40;43.90;;;;;;4825196;29;20049;-73
2023/04/23 10:59:34;;;;;;;2.63;2.42;;;23.40;44.30;;;;;;4824011;29;20062;-73
2023/04/23 11:02:10;;;;;;;3.63;3.10;;;23.40;44.50;;;;;;4825029;29;20114;-72
2023/04/23 11:04:43;;;;;;;5.30;1.92;;;23.40;44.70;;;;;;4823163;29;20038;-72
2023/04/23 11:07:11;;;;;;;2.97;1.77;;;23.20;45.00;;;;;;4825465;29;20065;-72
2023/04/23 11:09:43;;;;;;;2.13;1.83;;;23.30;45.10;;;;;;4823378;29;20043;-72
2023/04/23 11:12:24;;;;;;;2.03;1.50;;;23.40;45.30;;;;;;4823968;29;20053;-72
2023/04/23 11:14:53;;;;;;;3.38;1.95;;;23.30;45.60;;;;;;4837994;29;20043;-72
2023/04/23 11:17:30;;;;;;;2.92;1.75;;;23.30;45.80;;;;;;4838341;29;20129;-72
2023/04/23 11:20:18;;;;;;;1.75;1.60;;;23.20;45.90;;;;;;4825397;29;20125;-72
2023/04/23 11:22:46;;;;;;;2.67;2.10;;;23.30;46.10;;;;;;4825257;29;20039;-72
2023/04/23 11:25:30;;;;;;;3.10;2.40;;;23.20;46.10;;;;;;4824471;29;20042;-72
2023/04/23 11:28:00;;;;;;;2.92;2.03;;;23.30;46.40;;;;;;4825254;29;20069;-72
2023/04/23 11:30:28;;;;;;;2.50;2.30;;;23.30;46.40;;;;;;4838743;29;20725;-72
2023/04/23 11:32:56;;;;;;;3.10;1.67;;;23.30;46.60;;;;;;4824488;29;20117;-73
2023/04/23 11:35:29;;;;;;;2.03;1.83;;;23.20;46.50;;;;;;4824251;29;20179;-72
2023/04/23 11:37:55;;;;;;;3.47;2.03;;;23.30;46.60;;;;;;4807692;29;20411;-72
2023/04/23 11:40:23;;;;;;;3.28;1.83;;;23.20;46.60;;;;;;4824220;29;20042;-72
2023/04/23 11:42:53;;;;;;;2.92;2.28;;;23.20;46.50;;;;;;4824374;29;20094;-72
2023/04/23 11:45:25;;;;;;;3.15;1.85;;;23.30;46.80;;;;;;4824775;29;20034;-72
2023/04/23 11:47:56;;;;;;;3.08;2.03;;;23.20;46.90;;;;;;4823958;29;20379;-72
2023/04/23 11:50:24;;;;;;;2.42;1.58;;;23.30;47.00;;;;;;4824579;29;20034;-72
2023/04/23 11:52:51;;;;;;;6.50;2.08;;;23.20;46.30;;;;;;4838231;29;20042;-72
2023/04/23 11:55:18;;;;;;;4.25;1.63;;;23.20;46.90;;;;;;4824504;29;20043;-72
2023/04/23 11:57:49;;;;;;;1.92;1.80;;;23.20;47.00;;;;;;4823515;29;20054;-72
2023/04/23 12:00:20;;;;;;;2.70;1.92;;;23.30;47.20;;;;;;4824370;29;20062;-72
2023/04/23 12:02:53;;;;;;;2.55;1.90;;;23.40;47.30;;;;;;4823701;29;20494;-72
2023/04/23 12:05:41;;;;;;;1.85;1.63;;;23.30;47.30;;;;;;4823441;29;20054;-72
2023/04/23 12:08:30;;;;;;;3.90;2.00;;;23.30;47.30;;;;;;4823090;29;20038;-72
2023/04/23 12:11:01;;;;;;;5.22;2.25;;;23.40;47.30;;;;;;4824238;29;20034;-72
2023/04/23 12:13:30;;;;;;;2.63;1.88;;;23.30;47.20;;;;;;4822965;29;20041;-72
2023/04/23 12:15:58;;;;;;;2.25;1.85;;;23.40;47.50;;;;;;4823534;29;20514;-72
2023/04/23 12:18:29;;;;;;;2.42;1.70;;;23.40;47.50;;;;;;4823704;29;20062;-72
2023/04/23 12:20:56;;;;;;;2.13;1.90;;;23.30;46.80;;;;;;4837865;29;20042;-72
2023/04/23 12:23:29;;;;;;;3.78;2.17;;;23.40;45.10;;;;;;4824122;29;20053;-72
2023/04/23 12:25:55;;;;;;;1.55;1.40;;;23.40;45.30;;;;;;4823315;29;20125;-72
2023/04/23 12:28:24;;;;;;;2.55;1.73;;;23.40;46.50;;;;;;4824083;29;20049;-72
2023/04/23 12:30:51;;;;;;;2.13;1.92;;;23.40;47.50;;;;;;4823412;29;20034;-72
2023/04/23 12:33:17;;;;;;;3.47;1.55;;;23.60;47.70;;;;;;4822456;29;20042;-72
2023/04/23 12:35:48;;;;;;;2.13;1.88;;;23.40;47.70;;;;;;4837299;29;20031;-72
2023/04/23 12:38:26;;;;;;;3.42;2.08;;;23.40;47.70;;;;;;4823911;29;20115;-73
2023/04/23 12:40:57;;;;;;;3.28;2.08;;;23.50;47.90;;;;;;4823374;29;20045;-73
2023/04/23 12:43:24;;;;;;;2.75;1.90;;;23.60;48.00;;;;;;4837165;29;20136;-74
2023/04/23 12:45:51;;;;;;;4.53;1.92;;;23.50;48.00;;;;;;4823959;29;20046;-72
2023/04/23 12:48:17;;;;;;;4.32;1.60;;;23.70;48.10;;;;;;4823154;29;20053;-73
2023/04/23 12:50:47;;;;;;;1.60;1.50;;;23.50;47.80;;;;;;4825371;29;20042;-72
2023/04/23 12:53:13;;;;;;;1.90;1.58;;;23.50;46.30;;;;;;4823353;29;20125;-73